Terminal Aerodrome Forecast
Issued by NWS Cleveland, OH

Home | Current Version | Previous Version | Text Only | Print | Product List | Glossary On
Versions: 1 2 3 4 5 6 7 8 9 10 11 12 13 14 15 16 17 18 19 20 21 22 23 24 25 26 27 28
000
FTUS41 KCLE 182320
TAFYNG
TAF
KYNG 182320Z 1900/1924 19010KT P6SM SCT060 BKN150
     FM191000 15004KT P6SM VCSH BKN035 OVC060
     FM191800 18010KT 6SM BR VCSH BKN015 OVC035
     FM192300 35008KT P6SM SCT008 OVC012=

USA.gov is the U.S. government's official web portal to all federal, state and local government web resources and services.